sensor_id;sensor_type;location;lat;lon;timestamp;pressure;altitude;pressure_sealevel;temperature;humidity
21361;BME280;10839;43.206;23.550;2024-01-15T00:01:12;96484.22;;;5.69;62.09
21361;BME280;10839;43.206;23.550;2024-01-15T00:03:37;96485.13;;;5.76;61.68
21361;BME280;10839;43.206;23.550;2024-01-15T00:06:03;96481.03;;;5.51;62.03
21361;BME280;10839;43.206;23.550;2024-01-15T00:08:29;96473.75;;;5.45;62.30
21361;BME280;10839;43.206;23.550;2024-01-15T00:10:54;96469.19;;;5.53;62.19
21361;BME280;10839;43.206;23.550;2024-01-15T00:13:20;96457.66;;;5.53;62.44
21361;BME280;10839;43.206;23.550;2024-01-15T00:15:45;96470.69;;;5.70;61.88
21361;BME280;10839;43.206;23.550;2024-01-15T00:18:11;96478.50;;;5.72;62.03
21361;BME280;10839;43.206;23.550;2024-01-15T00:20:36;96466.72;;;5.66;61.77
21361;BME280;10839;43.206;23.550;2024-01-15T00:23:02;96466.53;;;5.68;62.30
21361;BME280;10839;43.206;23.550;2024-01-15T00:25:27;96472.03;;;5.52;62.93
21361;BME280;10839;43.206;23.550;2024-01-15T00:27:53;96469.81;;;5.41;63.13
21361;BME280;10839;43.206;23.550;2024-01-15T00:30:18;96470.78;;;5.62;62.44
21361;BME280;10839;43.206;23.550;2024-01-15T00:32:44;96479.59;;;5.63;62.33
21361;BME280;10839;43.206;23.550;2024-01-15T00:35:09;96468.88;;;5.48;63.00
21361;BME280;10839;43.206;23.550;2024-01-15T00:37:35;96471.81;;;5.39;63.37
21361;BME280;10839;43.206;23.550;2024-01-15T00:40:00;96475.47;;;5.38;63.72
21361;BME280;10839;43.206;23.550;2024-01-15T00:42:26;96470.50;;;5.35;63.17
21361;BME280;10839;43.206;23.550;2024-01-15T00:44:51;96484.97;;;5.17;64.75
21361;BME280;10839;43.206;23.550;2024-01-15T00:47:18;96483.13;;;4.95;65.94
21361;BME280;10839;43.206;23.550;2024-01-15T00:49:44;96473.47;;;4.94;65.42
21361;BME280;10839;43.206;23.550;2024-01-15T00:52:10;96473.56;;;4.78;65.63
21361;BME280;10839;43.206;23.550;2024-01-15T00:54:35;96476.78;;;4.96;64.88
21361;BME280;10839;43.206;23.550;2024-01-15T00:57:01;96468.78;;;4.96;64.56
21361;BME280;10839;43.206;23.550;2024-01-15T00:59:26;96466.34;;;5.09;64.52
21361;BME280;10839;43.206;23.550;2024-01-15T01:01:52;96469.22;;;4.85;63.30
21361;BME280;10839;43.206;23.550;2024-01-15T01:04:17;96465.56;;;4.48;64.21
21361;BME280;10839;43.206;23.550;2024-01-15T01:06:42;96463.41;;;4.51;64.34
21361;BME280;10839;43.206;23.550;2024-01-15T01:09:08;96472.44;;;4.42;64.56
21361;BME280;10839;43.206;23.550;2024-01-15T01:11:34;96461.81;;;4.42;66.46
21361;BME280;10839;43.206;23.550;2024-01-15T01:13:59;96449.03;;;4.60;67.07
21361;BME280;10839;43.206;23.550;2024-01-15T01:16:26;96463.97;;;4.69;67.61
21361;BME280;10839;43.206;23.550;2024-01-15T01:18:51;96441.34;;;4.65;67.54
21361;BME280;10839;43.206;23.550;2024-01-15T01:21:16;96449.72;;;4.85;67.71
21361;BME280;10839;43.206;23.550;2024-01-15T01:23:42;96452.44;;;4.99;66.85
21361;BME280;10839;43.206;23.550;2024-01-15T01:26:07;96445.88;;;5.10;66.48
21361;BME280;10839;43.206;23.550;2024-01-15T01:28:33;96437.94;;;5.02;66.98
21361;BME280;10839;43.206;23.550;2024-01-15T01:30:59;96451.16;;;5.33;66.10
21361;BME280;10839;43.206;23.550;2024-01-15T01:33:25;96444.69;;;5.50;65.42
21361;BME280;10839;43.206;23.550;2024-01-15T01:35:50;96439.06;;;5.45;65.43
21361;BME280;10839;43.206;23.550;2024-01-15T01:38:16;96447.41;;;5.27;66.61
21361;BME280;10839;43.206;23.550;2024-01-15T01:40:41;96447.91;;;5.22;67.19
21361;BME280;10839;43.206;23.550;2024-01-15T01:43:09;96441.59;;;5.23;67.45
21361;BME280;10839;43.206;23.550;2024-01-15T01:45:34;96416.66;;;5.16;67.55
21361;BME280;10839;43.206;23.550;2024-01-15T01:48:00;96436.16;;;4.94;68.17
21361;BME280;10839;43.206;23.550;2024-01-15T01:50:26;96451.31;;;5.16;67.79
21361;BME280;10839;43.206;23.550;2024-01-15T01:52:51;96430.72;;;5.10;67.46
21361;BME280;10839;43.206;23.550;2024-01-15T01:55:18;96416.72;;;5.08;67.93
21361;BME280;10839;43.206;23.550;2024-01-15T01:57:44;96427.25;;;5.24;67.77
21361;BME280;10839;43.206;23.550;2024-01-15T02:00:10;96416.94;;;5.21;67.59
21361;BME280;10839;43.206;23.550;2024-01-15T02:02:39;96416.00;;;5.14;68.31
21361;BME280;10839;43.206;23.550;2024-01-15T02:05:05;96416.97;;;4.76;67.26
21361;BME280;10839;43.206;23.550;2024-01-15T02:07:34;96416.78;;;4.25;66.61
21361;BME280;10839;43.206;23.550;2024-01-15T02:09:59;96428.78;;;4.13;67.01
21361;BME280;10839;43.206;23.550;2024-01-15T02:12:25;96422.94;;;4.25;66.96
21361;BME280;10839;43.206;23.550;2024-01-15T02:14:51;96417.59;;;3.86;67.99
21361;BME280;10839;43.206;23.550;2024-01-15T02:17:17;96421.31;;;3.69;69.14
21361;BME280;10839;43.206;23.550;2024-01-15T02:19:42;96417.47;;;3.80;68.92
21361;BME280;10839;43.206;23.550;2024-01-15T02:22:08;96411.97;;;3.81;69.49
21361;BME280;10839;43.206;23.550;2024-01-15T02:24:33;96411.28;;;3.87;69.41
21361;BME280;10839;43.206;23.550;2024-01-15T02:26:59;96388.81;;;3.90;69.36
21361;BME280;10839;43.206;23.550;2024-01-15T02:29:25;96400.66;;;3.79;69.81
21361;BME280;10839;43.206;23.550;2024-01-15T02:31:50;96399.88;;;3.71;70.78
21361;BME280;10839;43.206;23.550;2024-01-15T02:34:15;96393.22;;;3.67;71.33
21361;BME280;10839;43.206;23.550;2024-01-15T02:36:41;96383.53;;;3.82;71.35
21361;BME280;10839;43.206;23.550;2024-01-15T02:39:07;96386.19;;;3.82;71.27
21361;BME280;10839;43.206;23.550;2024-01-15T02:41:32;96368.88;;;3.86;71.37
21361;BME280;10839;43.206;23.550;2024-01-15T02:43:58;96378.56;;;3.79;71.26
21361;BME280;10839;43.206;23.550;2024-01-15T02:46:23;96368.91;;;3.78;71.38
21361;BME280;10839;43.206;23.550;2024-01-15T02:48:48;96366.63;;;3.67;71.82
21361;BME280;10839;43.206;23.550;2024-01-15T02:51:14;96373.91;;;3.73;72.37
21361;BME280;10839;43.206;23.550;2024-01-15T02:53:39;96363.09;;;3.82;72.27
21361;BME280;10839;43.206;23.550;2024-01-15T02:56:07;96355.75;;;3.46;73.13
21361;BME280;10839;43.206;23.550;2024-01-15T02:58:32;96346.25;;;3.43;73.13
21361;BME280;10839;43.206;23.550;2024-01-15T03:00:58;96340.56;;;3.54;73.61
21361;BME280;10839;43.206;23.550;2024-01-15T03:03:23;96358.03;;;3.57;73.54
21361;BME280;10839;43.206;23.550;2024-01-15T03:05:50;96345.75;;;3.56;73.85
21361;BME280;10839;43.206;23.550;2024-01-15T03:08:15;96356.50;;;4.01;72.65
21361;BME280;10839;43.206;23.550;2024-01-15T03:10:41;96347.38;;;4.26;71.85
21361;BME280;10839;43.206;23.550;2024-01-15T03:13:06;96348.16;;;4.35;70.73
21361;BME280;10839;43.206;23.550;2024-01-15T03:15:32;96347.31;;;4.34;71.16
21361;BME280;10839;43.206;23.550;2024-01-15T03:17:57;96343.50;;;4.06;71.67
21361;BME280;10839;43.206;23.550;2024-01-15T03:20:23;96341.59;;;3.92;72.59
21361;BME280;10839;43.206;23.550;2024-01-15T03:22:48;96331.78;;;3.92;73.19
21361;BME280;10839;43.206;23.550;2024-01-15T03:25:14;96333.84;;;3.74;74.12
21361;BME280;10839;43.206;23.550;2024-01-15T03:27:39;96339.72;;;3.62;74.91
21361;BME280;10839;43.206;23.550;2024-01-15T03:30:05;96324.91;;;3.67;74.53
21361;BME280;10839;43.206;23.550;2024-01-15T03:32:31;96321.66;;;3.88;74.28
21361;BME280;10839;43.206;23.550;2024-01-15T03:34:57;96311.91;;;4.03;73.18
21361;BME280;10839;43.206;23.550;2024-01-15T03:37:22;96325.66;;;4.15;73.42
21361;BME280;10839;43.206;23.550;2024-01-15T03:39:48;96335.66;;;3.82;74.68
21361;BME280;10839;43.206;23.550;2024-01-15T03:42:13;96327.00;;;3.80;75.18
21361;BME280;10839;43.206;23.550;2024-01-15T03:44:39;96313.47;;;3.59;75.79
21361;BME280;10839;43.206;23.550;2024-01-15T03:47:05;96309.53;;;3.85;75.19
21361;BME280;10839;43.206;23.550;2024-01-15T03:49:30;96325.16;;;4.11;74.25
21361;BME280;10839;43.206;23.550;2024-01-15T03:51:56;96314.53;;;4.11;73.96
21361;BME280;10839;43.206;23.550;2024-01-15T03:54:21;96304.59;;;4.05;73.97
21361;BME280;10839;43.206;23.550;2024-01-15T03:56:47;96312.88;;;4.10;73.93
21361;BME280;10839;43.206;23.550;2024-01-15T03:59:12;96310.16;;;4.18;73.92
21361;BME280;10839;43.206;23.550;2024-01-15T04:01:38;96299.03;;;3.92;74.49
21361;BME280;10839;43.206;23.550;2024-01-15T04:04:03;96303.31;;;3.93;74.97
21361;BME280;10839;43.206;23.550;2024-01-15T04:06:29;96311.75;;;3.74;75.47
21361;BME280;10839;43.206;23.550;2024-01-15T04:08:54;96306.47;;;3.66;76.16
21361;BME280;10839;43.206;23.550;2024-01-15T04:11:20;96306.34;;;3.90;75.52
21361;BME280;10839;43.206;23.550;2024-01-15T04:13:45;96296.81;;;3.65;76.53
21361;BME280;10839;43.206;23.550;2024-01-15T04:16:11;96299.91;;;3.46;76.98
21361;BME280;10839;43.206;23.550;2024-01-15T04:18:36;96298.28;;;3.37;77.56
21361;BME280;10839;43.206;23.550;2024-01-15T04:21:04;96291.09;;;3.45;77.25
21361;BME280;10839;43.206;23.550;2024-01-15T04:23:30;96318.53;;;3.38;78.03
21361;BME280;10839;43.206;23.550;2024-01-15T04:25:56;96299.28;;;3.28;78.62
21361;BME280;10839;43.206;23.550;2024-01-15T04:28:21;96293.66;;;3.23;79.09
21361;BME280;10839;43.206;23.550;2024-01-15T04:30:46;96292.38;;;3.11;79.49
21361;BME280;10839;43.206;23.550;2024-01-15T04:33:12;96297.34;;;3.14;80.60
21361;BME280;10839;43.206;23.550;2024-01-15T04:35:37;96277.34;;;3.34;78.93
21361;BME280;10839;43.206;23.550;2024-01-15T04:38:03;96257.81;;;3.19;79.34
21361;BME280;10839;43.206;23.550;2024-01-15T04:40:29;96289.66;;;3.27;79.40
21361;BME280;10839;43.206;23.550;2024-01-15T04:42:54;96282.38;;;3.21;80.09
21361;BME280;10839;43.206;23.550;2024-01-15T04:45:20;96289.00;;;3.25;79.68
21361;BME280;10839;43.206;23.550;2024-01-15T04:47:48;96286.03;;;3.20;80.11
21361;BME280;10839;43.206;23.550;2024-01-15T04:50:14;96266.75;;;3.18;79.35
21361;BME280;10839;43.206;23.550;2024-01-15T04:52:40;96281.97;;;3.40;79.13
21361;BME280;10839;43.206;23.550;2024-01-15T04:55:05;96277.72;;;3.31;79.78
21361;BME280;10839;43.206;23.550;2024-01-15T04:57:31;96266.72;;;3.34;79.05
21361;BME280;10839;43.206;23.550;2024-01-15T04:59:56;96288.25;;;3.47;78.67
21361;BME280;10839;43.206;23.550;2024-01-15T05:02:22;96272.31;;;3.47;78.62
21361;BME280;10839;43.206;23.550;2024-01-15T05:04:47;96272.97;;;3.49;78.45
21361;BME280;10839;43.206;23.550;2024-01-15T05:07:12;96270.41;;;3.63;78.06
21361;BME280;10839;43.206;23.550;2024-01-15T05:09:38;96260.31;;;3.59;78.47
21361;BME280;10839;43.206;23.550;2024-01-15T05:12:04;96248.59;;;3.68;77.34
21361;BME280;10839;43.206;23.550;2024-01-15T05:14:29;96262.19;;;3.73;77.05
21361;BME280;10839;43.206;23.550;2024-01-15T05:16:55;96263.31;;;3.48;78.21
21361;BME280;10839;43.206;23.550;2024-01-15T05:19:20;96259.69;;;3.49;78.25
21361;BME280;10839;43.206;23.550;2024-01-15T05:21:46;96249.31;;;3.62;77.88
21361;BME280;10839;43.206;23.550;2024-01-15T05:24:11;96245.31;;;3.58;77.72
21361;BME280;10839;43.206;23.550;2024-01-15T05:26:36;96246.81;;;3.60;77.97
21361;BME280;10839;43.206;23.550;2024-01-15T05:29:02;96255.47;;;3.62;77.34
21361;BME280;10839;43.206;23.550;2024-01-15T05:31:27;96254.53;;;3.78;76.61
21361;BME280;10839;43.206;23.550;2024-01-15T05:33:53;96253.31;;;3.58;77.46
21361;BME280;10839;43.206;23.550;2024-01-15T05:36:18;96259.72;;;3.41;78.72
21361;BME280;10839;43.206;23.550;2024-01-15T05:38:44;96265.75;;;3.27;79.44
21361;BME280;10839;43.206;23.550;2024-01-15T05:41:10;96258.78;;;3.26;79.77
21361;BME280;10839;43.206;23.550;2024-01-15T05:43:35;96240.25;;;3.02;80.04
21361;BME280;10839;43.206;23.550;2024-01-15T05:46:00;96231.22;;;3.19;79.54
21361;BME280;10839;43.206;23.550;2024-01-15T05:48:26;96233.88;;;3.19;80.21
21361;BME280;10839;43.206;23.550;2024-01-15T05:50:51;96245.81;;;3.31;80.17
21361;BME280;10839;43.206;23.550;2024-01-15T05:53:17;96227.72;;;3.57;77.81
21361;BME280;10839;43.206;23.550;2024-01-15T05:55:42;96221.19;;;3.67;76.58
21361;BME280;10839;43.206;23.550;2024-01-15T05:58:08;96218.25;;;3.85;75.48
21361;BME280;10839;43.206;23.550;2024-01-15T06:00:33;96221.31;;;3.74;76.55
21361;BME280;10839;43.206;23.550;2024-01-15T06:03:00;96222.75;;;3.54;77.49
21361;BME280;10839;43.206;23.550;2024-01-15T06:05:26;96237.91;;;3.76;77.04
21361;BME280;10839;43.206;23.550;2024-01-15T06:07:51;96215.03;;;3.67;76.73
21361;BME280;10839;43.206;23.550;2024-01-15T06:10:17;96209.13;;;3.79;75.51
21361;BME280;10839;43.206;23.550;2024-01-15T06:12:43;96200.84;;;3.74;76.51
21361;BME280;10839;43.206;23.550;2024-01-15T06:15:09;96215.44;;;4.09;74.47
21361;BME280;10839;43.206;23.550;2024-01-15T06:17:34;96218.09;;;4.09;74.24
21361;BME280;10839;43.206;23.550;2024-01-15T06:20:00;96211.97;;;4.23;74.05
21361;BME280;10839;43.206;23.550;2024-01-15T06:22:25;96224.00;;;4.56;72.27
21361;BME280;10839;43.206;23.550;2024-01-15T06:24:50;96212.00;;;5.18;69.78
21361;BME280;10839;43.206;23.550;2024-01-15T06:27:16;96211.81;;;5.85;65.91
21361;BME280;10839;43.206;23.550;2024-01-15T06:29:45;96199.31;;;4.77;69.25
21361;BME280;10839;43.206;23.550;2024-01-15T06:32:12;96225.16;;;5.05;68.85
21361;BME280;10839;43.206;23.550;2024-01-15T06:34:38;96215.31;;;5.35;67.81
21361;BME280;10839;43.206;23.550;2024-01-15T06:37:04;96207.94;;;5.52;67.52
21361;BME280;10839;43.206;23.550;2024-01-15T06:39:30;96211.50;;;5.59;66.46
21361;BME280;10839;43.206;23.550;2024-01-15T06:41:55;96217.53;;;5.82;64.78
21361;BME280;10839;43.206;23.550;2024-01-15T06:44:21;96213.13;;;5.89;63.94
21361;BME280;10839;43.206;23.550;2024-01-15T06:46:47;96208.72;;;6.02;63.79
21361;BME280;10839;43.206;23.550;2024-01-15T06:49:13;96208.81;;;6.30;61.13
21361;BME280;10839;43.206;23.550;2024-01-15T06:51:38;96211.06;;;5.91;63.05
21361;BME280;10839;43.206;23.550;2024-01-15T06:54:04;96202.63;;;7.12;60.00
21361;BME280;10839;43.206;23.550;2024-01-15T06:56:30;96232.44;;;7.09;59.01
21361;BME280;10839;43.206;23.550;2024-01-15T06:58:56;96224.50;;;6.88;58.88
21361;BME280;10839;43.206;23.550;2024-01-15T07:01:22;96224.50;;;7.22;57.95
21361;BME280;10839;43.206;23.550;2024-01-15T07:03:47;96208.69;;;6.93;59.53
21361;BME280;10839;43.206;23.550;2024-01-15T07:06:13;96210.25;;;7.49;56.35
21361;BME280;10839;43.206;23.550;2024-01-15T07:08:39;96224.22;;;7.45;56.65
21361;BME280;10839;43.206;23.550;2024-01-15T07:11:05;96200.66;;;8.28;53.65
21361;BME280;10839;43.206;23.550;2024-01-15T07:13:31;96205.59;;;8.64;52.85
21361;BME280;10839;43.206;23.550;2024-01-15T07:15:57;96201.50;;;8.81;51.11
21361;BME280;10839;43.206;23.550;2024-01-15T07:18:22;96195.69;;;8.97;49.51
21361;BME280;10839;43.206;23.550;2024-01-15T07:20:48;96210.13;;;9.09;49.14
21361;BME280;10839;43.206;23.550;2024-01-15T07:23:14;96212.63;;;8.97;47.05
21361;BME280;10839;43.206;23.550;2024-01-15T07:25:39;96206.84;;;9.00;46.19
21361;BME280;10839;43.206;23.550;2024-01-15T07:28:05;96191.38;;;8.96;45.65
21361;BME280;10839;43.206;23.550;2024-01-15T07:30:31;96187.41;;;9.05;45.32
21361;BME280;10839;43.206;23.550;2024-01-15T07:32:56;96200.63;;;9.00;45.50
21361;BME280;10839;43.206;23.550;2024-01-15T07:35:21;96220.84;;;9.09;44.24
21361;BME280;10839;43.206;23.550;2024-01-15T07:37:47;96198.50;;;9.41;44.78
21361;BME280;10839;43.206;23.550;2024-01-15T07:40:13;96207.53;;;9.53;43.94
21361;BME280;10839;43.206;23.550;2024-01-15T07:42:38;96188.53;;;9.61;43.19
21361;BME280;10839;43.206;23.550;2024-01-15T07:45:05;96189.50;;;9.73;43.61
21361;BME280;10839;43.206;23.550;2024-01-15T07:47:31;96187.22;;;9.70;43.22
21361;BME280;10839;43.206;23.550;2024-01-15T07:49:57;96191.41;;;9.66;42.73
21361;BME280;10839;43.206;23.550;2024-01-15T07:52:22;96173.84;;;10.01;43.14
21361;BME280;10839;43.206;23.550;2024-01-15T07:54:48;96183.53;;;10.15;42.62
21361;BME280;10839;43.206;23.550;2024-01-15T07:57:13;96186.13;;;10.28;42.09
21361;BME280;10839;43.206;23.550;2024-01-15T07:59:39;96195.00;;;9.91;41.91
21361;BME280;10839;43.206;23.550;2024-01-15T08:02:05;96156.97;;;9.94;42.18
21361;BME280;10839;43.206;23.550;2024-01-15T08:04:31;96177.78;;;10.37;41.24
21361;BME280;10839;43.206;23.550;2024-01-15T08:06:56;96191.97;;;10.75;40.70
21361;BME280;10839;43.206;23.550;2024-01-15T08:09:22;96177.31;;;11.38;39.56
21361;BME280;10839;43.206;23.550;2024-01-15T08:11:48;96168.50;;;11.49;38.35
21361;BME280;10839;43.206;23.550;2024-01-15T08:14:15;96169.34;;;11.86;37.61
21361;BME280;10839;43.206;23.550;2024-01-15T08:16:40;96168.94;;;12.41;36.49
21361;BME280;10839;43.206;23.550;2024-01-15T08:19:06;96125.13;;;12.57;36.10
21361;BME280;10839;43.206;23.550;2024-01-15T08:21:31;96148.97;;;12.72;35.53
21361;BME280;10839;43.206;23.550;2024-01-15T08:23:58;96138.81;;;13.09;34.90
21361;BME280;10839;43.206;23.550;2024-01-15T08:26:24;96138.63;;;14.01;34.50
21361;BME280;10839;43.206;23.550;2024-01-15T08:28:50;96126.06;;;13.95;33.78
21361;BME280;10839;43.206;23.550;2024-01-15T08:31:15;96128.00;;;14.11;33.42
21361;BME280;10839;43.206;23.550;2024-01-15T08:33:41;96135.59;;;13.86;34.00
21361;BME280;10839;43.206;23.550;2024-01-15T08:36:06;96142.78;;;14.20;33.93
21361;BME280;10839;43.206;23.550;2024-01-15T08:38:32;96119.56;;;13.68;33.69
21361;BME280;10839;43.206;23.550;2024-01-15T08:40:57;96142.78;;;13.18;34.45
21361;BME280;10839;43.206;23.550;2024-01-15T08:43:26;96124.69;;;13.30;34.84
21361;BME280;10839;43.206;23.550;2024-01-15T08:45:52;96142.06;;;13.57;34.75
21361;BME280;10839;43.206;23.550;2024-01-15T08:48:17;96112.00;;;13.42;34.06
21361;BME280;10839;43.206;23.550;2024-01-15T08:50:43;96113.16;;;14.25;33.10
21361;BME280;10839;43.206;23.550;2024-01-15T08:53:12;96108.63;;;14.75;33.03
21361;BME280;10839;43.206;23.550;2024-01-15T08:55:37;96123.28;;;15.51;32.57
21361;BME280;10839;43.206;23.550;2024-01-15T08:58:03;96117.56;;;14.31;33.87
21361;BME280;10839;43.206;23.550;2024-01-15T09:00:29;96125.00;;;14.52;33.49
21361;BME280;10839;43.206;23.550;2024-01-15T09:02:55;96122.69;;;14.44;34.42
21361;BME280;10839;43.206;23.550;2024-01-15T09:05:21;96083.00;;;14.66;34.39
21361;BME280;10839;43.206;23.550;2024-01-15T09:07:47;96079.22;;;14.51;35.06
21361;BME280;10839;43.206;23.550;2024-01-15T09:10:13;96091.66;;;15.78;33.49
21361;BME280;10839;43.206;23.550;2024-01-15T09:12:39;96082.09;;;15.15;33.03
21361;BME280;10839;43.206;23.550;2024-01-15T09:15:05;96065.81;;;15.49;34.04
21361;BME280;10839;43.206;23.550;2024-01-15T09:17:34;96097.03;;;15.34;34.06
21361;BME280;10839;43.206;23.550;2024-01-15T09:19:59;96080.66;;;15.08;34.86
21361;BME280;10839;43.206;23.550;2024-01-15T09:22:25;96035.09;;;14.50;35.37
21361;BME280;10839;43.206;23.550;2024-01-15T09:24:51;96056.34;;;13.97;36.36
21361;BME280;10839;43.206;23.550;2024-01-15T09:27:16;96066.00;;;13.93;37.22
21361;BME280;10839;43.206;23.550;2024-01-15T09:29:42;96077.66;;;14.10;37.64
21361;BME280;10839;43.206;23.550;2024-01-15T09:32:08;96062.16;;;13.77;37.71
21361;BME280;10839;43.206;23.550;2024-01-15T09:34:34;96057.03;;;13.25;38.73
21361;BME280;10839;43.206;23.550;2024-01-15T09:37:00;96069.75;;;12.89;39.69
21361;BME280;10839;43.206;23.550;2024-01-15T09:39:26;96047.78;;;12.40;40.14
21361;BME280;10839;43.206;23.550;2024-01-15T09:41:53;96055.88;;;12.28;40.46
21361;BME280;10839;43.206;23.550;2024-01-15T09:44:19;96055.00;;;12.05;41.37
21361;BME280;10839;43.206;23.550;2024-01-15T09:46:45;96075.31;;;12.07;41.31
21361;BME280;10839;43.206;23.550;2024-01-15T09:49:11;96076.19;;;12.01;41.06
21361;BME280;10839;43.206;23.550;2024-01-15T09:51:38;96068.47;;;12.46;40.58
21361;BME280;10839;43.206;23.550;2024-01-15T09:54:05;96036.50;;;13.24;39.72
21361;BME280;10839;43.206;23.550;2024-01-15T09:56:30;96045.91;;;13.89;38.53
21361;BME280;10839;43.206;23.550;2024-01-15T09:58:57;95991.13;;;14.43;37.78
21361;BME280;10839;43.206;23.550;2024-01-15T10:01:22;96027.06;;;14.55;38.06
21361;BME280;10839;43.206;23.550;2024-01-15T10:03:49;95986.53;;;14.60;37.34
21361;BME280;10839;43.206;23.550;2024-01-15T10:06:16;96010.81;;;15.31;36.93
21361;BME280;10839;43.206;23.550;2024-01-15T10:08:49;96041.16;;;14.57;37.48
21361;BME280;10839;43.206;23.550;2024-01-15T10:11:15;96020.41;;;13.85;38.29
21361;BME280;10839;43.206;23.550;2024-01-15T10:13:43;96041.56;;;13.88;37.91
21361;BME280;10839;43.206;23.550;2024-01-15T10:16:09;95990.50;;;13.75;38.96
21361;BME280;10839;43.206;23.550;2024-01-15T10:18:35;96026.53;;;12.89;39.60
21361;BME280;10839;43.206;23.550;2024-01-15T10:21:11;95994.66;;;12.63;40.34
21361;BME280;10839;43.206;23.550;2024-01-15T10:23:36;96030.53;;;12.29;41.13
21361;BME280;10839;43.206;23.550;2024-01-15T10:26:03;95966.94;;;11.87;41.65
21361;BME280;10839;43.206;23.550;2024-01-15T10:28:30;95988.78;;;11.38;42.66
21361;BME280;10839;43.206;23.550;2024-01-15T10:30:57;95952.59;;;11.34;43.48
21361;BME280;10839;43.206;23.550;2024-01-15T10:33:23;95965.53;;;11.14;43.55
21361;BME280;10839;43.206;23.550;2024-01-15T10:35:56;95954.88;;;11.19;43.83
21361;BME280;10839;43.206;23.550;2024-01-15T10:38:22;95947.44;;;11.32;44.03
21361;BME280;10839;43.206;23.550;2024-01-15T10:40:52;95949.66;;;11.24;44.26
21361;BME280;10839;43.206;23.550;2024-01-15T10:43:18;95914.09;;;11.45;44.32
21361;BME280;10839;43.206;23.550;2024-01-15T10:45:47;95925.09;;;11.73;43.99
21361;BME280;10839;43.206;23.550;2024-01-15T10:48:14;95908.50;;;11.88;43.91
21361;BME280;10839;43.206;23.550;2024-01-15T10:50:41;95892.66;;;12.14;44.31
21361;BME280;10839;43.206;23.550;2024-01-15T10:53:08;95891.69;;;12.43;43.20
21361;BME280;10839;43.206;23.550;2024-01-15T10:55:35;95857.19;;;12.85;42.74
21361;BME280;10839;43.206;23.550;2024-01-15T10:58:03;95855.81;;;12.82;42.61
21361;BME280;10839;43.206;23.550;2024-01-15T11:00:29;95859.09;;;13.13;42.27
21361;BME280;10839;43.206;23.550;2024-01-15T11:02:56;95878.25;;;12.71;43.01
21361;BME280;10839;43.206;23.550;2024-01-15T11:05:22;95913.88;;;12.34;43.68
21361;BME280;10839;43.206;23.550;2024-01-15T11:07:48;95909.09;;;12.24;44.11
21361;BME280;10839;43.206;23.550;2024-01-15T11:15:59;95911.03;;;11.30;44.71
21361;BME280;10839;43.206;23.550;2024-01-15T11:18:37;95880.25;;;11.26;45.62
21361;BME280;10839;43.206;23.550;2024-01-15T11:23:48;95882.94;;;11.26;45.61
21361;BME280;10839;43.206;23.550;2024-01-15T11:26:34;95897.34;;;11.02;46.10
21361;BME280;10839;43.206;23.550;2024-01-15T11:29:05;95883.78;;;10.79;46.53
21361;BME280;10839;43.206;23.550;2024-01-15T11:34:03;95853.84;;;10.75;46.55
21361;BME280;10839;43.206;23.550;2024-01-15T11:42:02;95873.81;;;10.68;46.75
21361;BME280;10839;43.206;23.550;2024-01-15T11:44:30;95879.00;;;10.81;46.64
21361;BME280;10839;43.206;23.550;2024-01-15T11:47:00;95899.81;;;10.74;46.94
21361;BME280;10839;43.206;23.550;2024-01-15T11:50:02;95879.28;;;10.91;46.71
21361;BME280;10839;43.206;23.550;2024-01-15T11:52:39;95868.91;;;10.94;46.87
21361;BME280;10839;43.206;23.550;2024-01-15T11:58:14;95883.13;;;11.13;46.89
21361;BME280;10839;43.206;23.550;2024-01-15T12:00:44;95841.88;;;11.01;47.49
21361;BME280;10839;43.206;23.550;2024-01-15T12:03:10;95854.13;;;11.26;47.13
21361;BME280;10839;43.206;23.550;2024-01-15T12:05:39;95895.25;;;11.04;47.50
21361;BME280;10839;43.206;23.550;2024-01-15T12:08:05;95870.91;;;10.99;48.02
21361;BME280;10839;43.206;23.550;2024-01-15T12:10:36;95879.91;;;10.93;48.76
21361;BME280;10839;43.206;23.550;2024-01-15T12:13:13;95879.47;;;10.78;48.61
21361;BME280;10839;43.206;23.550;2024-01-15T12:15:41;95843.63;;;10.66;49.58
21361;BME280;10839;43.206;23.550;2024-01-15T12:18:08;95833.75;;;10.60;49.82
21361;BME280;10839;43.206;23.550;2024-01-15T12:20:34;95826.75;;;10.59;49.81
21361;BME280;10839;43.206;23.550;2024-01-15T12:23:00;95836.41;;;10.48;50.29
21361;BME280;10839;43.206;23.550;2024-01-15T12:25:26;95821.19;;;10.42;50.30
21361;BME280;10839;43.206;23.550;2024-01-15T12:27:53;95839.28;;;10.65;50.41
21361;BME280;10839;43.206;23.550;2024-01-15T12:30:19;95835.22;;;10.74;50.63
21361;BME280;10839;43.206;23.550;2024-01-15T12:32:45;95840.63;;;10.74;50.26
21361;BME280;10839;43.206;23.550;2024-01-15T12:35:11;95814.19;;;10.71;50.26
21361;BME280;10839;43.206;23.550;2024-01-15T12:37:39;95810.94;;;10.51;50.34
21361;BME280;10839;43.206;23.550;2024-01-15T12:40:06;95844.09;;;10.63;50.93
21361;BME280;10839;43.206;23.550;2024-01-15T12:42:39;95839.59;;;10.57;50.66
21361;BME280;10839;43.206;23.550;2024-01-15T12:45:05;95859.75;;;10.66;50.41
21361;BME280;10839;43.206;23.550;2024-01-15T12:47:31;95854.72;;;10.58;50.14
21361;BME280;10839;43.206;23.550;2024-01-15T12:49:57;95836.34;;;10.55;50.14
21361;BME280;10839;43.206;23.550;2024-01-15T12:52:26;95849.28;;;10.76;50.63
21361;BME280;10839;43.206;23.550;2024-01-15T12:54:52;95847.19;;;10.78;50.52
21361;BME280;10839;43.206;23.550;2024-01-15T12:57:17;95832.59;;;10.85;50.02
21361;BME280;10839;43.206;23.550;2024-01-15T12:59:43;95846.72;;;10.81;50.13
21361;BME280;10839;43.206;23.550;2024-01-15T13:02:13;95837.13;;;10.85;50.26
21361;BME280;10839;43.206;23.550;2024-01-15T13:04:39;95823.38;;;10.63;50.86
21361;BME280;10839;43.206;23.550;2024-01-15T13:07:06;95850.59;;;10.85;50.64
21361;BME280;10839;43.206;23.550;2024-01-15T13:09:32;95826.94;;;10.75;50.48